Time;durP1;ratioP1;P1;durP2;ratioP2;P2;SDS_P1;SDS_P2;PMS_P1;PMS_P2;Temp;Humidity;BMP_temperature;BMP_pressure;BME280_temperature;BME280_humidity;BME280_pressure;Samples;Min_cycle;Max_cycle;Signal;HPM_P1;HPM_P2
2022/12/18 00:00:44;;;;;;;98.90;38.92;;;;;;;-5.18;100.00;99440.70;1704067;81;20900;-80
2022/12/18 00:03:11;;;;;;;107.07;36.53;;;;;;;-5.25;100.00;99443.58;1761014;81;21432;-80
2022/12/18 00:05:37;;;;;;;107.07;36.55;;;;;;;-5.25;100.00;99448.86;1761521;81;20849;-80
2022/12/18 00:08:03;;;;;;;117.77;41.95;;;;;;;-5.22;100.00;99452.03;1761377;79;21039;-80
2022/12/18 00:10:29;;;;;;;126.30;45.50;;;;;;;-5.22;100.00;99448.56;1761513;81;21143;-78
2022/12/18 00:12:55;;;;;;;127.17;43.28;;;;;;;-5.19;100.00;99454.90;1761345;81;20986;-78
2022/12/18 00:15:21;;;;;;;109.55;40.70;;;;;;;-5.25;100.00;99458.94;1718742;82;20904;-78
2022/12/18 00:17:47;;;;;;;113.55;42.62;;;;;;;-5.27;100.00;99462.71;1730983;81;20927;-80
2022/12/18 00:20:13;;;;;;;104.43;38.85;;;;;;;-5.37;100.00;99464.06;1731018;82;20884;-80
2022/12/18 00:22:39;;;;;;;99.67;32.75;;;;;;;-5.35;100.00;99466.06;1731157;82;21135;-78
2022/12/18 00:25:05;;;;;;;102.53;32.48;;;;;;;-5.29;100.00;99468.15;1730784;82;20888;-78
2022/12/18 00:27:31;;;;;;;96.60;30.62;;;;;;;-5.26;100.00;99460.41;1731304;82;21531;-78
2022/12/18 00:29:57;;;;;;;85.45;32.35;;;;;;;-5.27;100.00;99470.16;1730974;82;20881;-78
2022/12/18 00:32:23;;;;;;;98.07;33.58;;;;;;;-5.21;100.00;99469.59;1731075;82;20971;-78
2022/12/18 00:34:48;;;;;;;96.70;32.20;;;;;;;-5.17;100.00;99472.27;1731145;82;21153;-78
2022/12/18 00:37:14;;;;;;;95.15;32.90;;;;;;;-5.14;100.00;99478.58;1731225;82;20845;-77
2022/12/18 00:39:40;;;;;;;96.42;32.00;;;;;;;-5.13;100.00;99478.95;1730940;82;20904;-80
2022/12/18 00:44:53;;;;;;;99.75;34.65;;;;;;;-5.13;100.00;99489.98;1706417;82;21043;-78
2022/12/18 00:47:19;;;;;;;107.00;35.45;;;;;;;-5.23;100.00;99500.59;1731162;82;22239;-81
2022/12/18 00:49:44;;;;;;;121.77;38.60;;;;;;;-5.33;100.00;99498.95;1730957;82;20860;-80
2022/12/18 00:52:10;;;;;;;116.80;41.40;;;;;;;-5.35;100.00;99503.55;1731230;82;20868;-78
2022/12/18 00:54:36;;;;;;;109.45;35.28;;;;;;;-5.29;100.00;99504.31;1730884;82;20955;-80
2022/12/18 00:57:02;;;;;;;97.15;35.33;;;;;;;-5.25;100.00;99514.44;1731324;82;20948;-78
2022/12/18 00:59:29;;;;;;;100.60;35.00;;;;;;;-5.27;100.00;99517.72;1731008;82;21313;-78
2022/12/18 01:01:56;;;;;;;108.57;39.18;;;;;;;-5.29;100.00;99517.03;1748153;81;21039;-78
2022/12/18 01:04:21;;;;;;;95.32;33.02;;;;;;;-5.31;100.00;99523.42;1761052;81;21050;-78
2022/12/18 01:06:47;;;;;;;95.05;30.60;;;;;;;-5.25;100.00;99527.66;1761560;81;20880;-81
2022/12/18 01:09:13;;;;;;;85.67;32.05;;;;;;;-5.21;100.00;99528.22;1761202;81;21451;-80
2022/12/18 01:11:39;;;;;;;103.85;32.15;;;;;;;-5.30;100.00;99529.05;1761525;81;21090;-80
2022/12/18 01:14:05;;;;;;;84.50;26.97;;;;;;;-5.34;100.00;99536.92;1761158;81;21554;-78
2022/12/18 01:16:31;;;;;;;89.40;30.72;;;;;;;-5.36;100.00;99526.50;1734101;81;20860;-80
2022/12/18 01:18:57;;;;;;;91.28;32.35;;;;;;;-5.35;100.00;99524.69;1731048;82;20876;-78
2022/12/18 01:21:23;;;;;;;80.55;28.00;;;;;;;-5.32;100.00;99531.00;1731282;82;20924;-80
2022/12/18 01:23:56;;;;;;;83.20;28.50;;;;;;;-5.33;100.00;99535.45;1730930;82;21180;-78
2022/12/18 01:26:21;;;;;;;87.50;30.00;;;;;;;-5.41;100.00;99536.16;1731139;82;20995;-80
2022/12/18 01:28:47;;;;;;;99.47;28.47;;;;;;;-5.39;100.00;99537.33;1736375;81;21666;-80
2022/12/18 01:31:17;;;;;;;77.05;26.23;;;;;;;-5.35;100.00;99532.12;1745949;82;20965;-80
2022/12/18 01:33:44;;;;;;;87.20;30.40;;;;;;;-5.37;100.00;99538.05;1769001;81;21063;-82
2022/12/18 01:36:16;;;;;;;84.05;27.40;;;;;;;-5.30;100.00;99540.94;1768809;81;21481;-80
2022/12/18 01:38:42;;;;;;;99.60;37.05;;;;;;;-5.30;100.00;99540.45;1745731;82;21080;-80
2022/12/18 01:41:08;;;;;;;93.10;34.08;;;;;;;-5.31;100.00;99541.42;1768831;81;20908;-78
2022/12/18 01:43:44;;;;;;;99.67;35.70;;;;;;;-5.28;100.00;99541.16;1745838;81;21056;-80
2022/12/18 01:46:10;;;;;;;93.75;36.25;;;;;;;-5.29;100.00;99541.31;1768904;81;21017;-80
2022/12/18 01:48:36;;;;;;;83.80;31.12;;;;;;;-5.30;100.00;99547.05;1768774;81;21060;-78
2022/12/18 01:51:02;;;;;;;93.78;29.40;;;;;;;-5.27;100.00;99540.67;1745719;82;20936;-78
2022/12/18 01:53:27;;;;;;;89.28;33.08;;;;;;;-5.24;100.00;99547.81;1768708;81;21351;-80
2022/12/18 01:55:56;;;;;;;95.00;30.70;;;;;;;-5.25;100.00;99554.08;1745736;82;21000;-79
2022/12/18 01:58:46;;;;;;;79.58;27.35;;;;;;;-5.25;100.00;99561.18;1768495;81;20988;-78
2022/12/18 02:01:12;;;;;;;78.83;24.92;;;;;;;-5.20;100.00;99570.36;1747600;81;21150;-80
2022/12/18 02:03:42;;;;;;;81.32;29.63;;;;;;;-5.16;100.00;99571.73;1752096;81;20894;-80
2022/12/18 02:06:37;;;;;;;73.52;26.05;;;;;;;-5.09;100.00;99579.11;1752118;81;21029;-80
2022/12/18 02:09:14;;;;;;;98.20;26.48;;;;;;;-5.08;100.00;99576.31;1752127;81;21001;-78
2022/12/18 02:11:48;;;;;;;82.33;25.05;;;;;;;-5.08;100.00;99578.95;1752452;81;20990;-78
2022/12/18 02:14:38;;;;;;;76.12;27.45;;;;;;;-5.05;100.00;99584.44;1752021;80;21013;-81
2022/12/18 02:17:18;;;;;;;85.35;26.12;;;;;;;-5.04;100.00;99584.32;1746031;81;21421;-80
2022/12/18 02:20:05;;;;;;;84.28;31.23;;;;;;;-5.00;100.00;99587.02;1715739;81;21059;-78
2022/12/18 02:23:05;;;;;;;84.47;31.15;;;;;;;-5.02;100.00;99590.30;1768648;81;21569;-80
2022/12/18 02:26:18;;;;;;;86.67;30.68;;;;;;;-5.12;100.00;99592.13;1768616;81;21052;-80
2022/12/18 02:28:58;;;;;;;97.95;36.60;;;;;;;-5.11;100.00;99593.80;1768636;81;21024;-80
2022/12/18 02:31:27;;;;;;;97.08;37.03;;;;;;;-5.10;100.00;99594.13;1739756;82;21430;-80
2022/12/18 02:33:56;;;;;;;;;;;;;;;-5.09;100.00;99601.09;1771346;81;21000;-78
2022/12/18 02:36:22;;;;;;;70.20;24.70;;;;;;;-5.04;100.00;99598.86;1768750;81;20165;-78
2022/12/18 02:38:48;;;;;;;94.40;31.17;;;;;;;-5.00;100.00;99601.55;1745922;81;21418;-80
2022/12/18 02:41:14;;;;;;;97.92;35.50;;;;;;;-4.97;100.00;99602.58;1768893;81;21102;-78
2022/12/18 02:43:43;;;;;;;95.87;31.45;;;;;;;-4.97;100.00;99599.94;1745943;82;21650;-78
2022/12/18 02:46:43;;;;;;;87.53;31.73;;;;;;;-5.00;100.00;99605.52;1738724;81;20988;-80
2022/12/18 02:49:41;;;;;;;82.12;28.38;;;;;;;-4.99;100.00;99610.32;1745916;82;21091;-80
2022/12/18 02:52:50;;;;;;;67.70;22.80;;;;;;;-4.95;100.00;99609.08;1769173;81;21495;-80
2022/12/18 02:55:41;;;;;;;68.80;24.98;;;;;;;-4.94;100.00;99609.42;1768855;81;21159;-80
2022/12/18 02:58:24;;;;;;;85.80;25.02;;;;;;;-4.93;100.00;99622.49;1768909;81;21435;-80
2022/12/18 03:01:13;;;;;;;75.52;27.25;;;;;;;-5.02;100.00;99627.80;1768496;81;21007;-79
2022/12/18 03:04:02;;;;;;;82.62;24.65;;;;;;;-5.03;100.00;99628.29;1769542;81;21010;-78
2022/12/18 03:06:35;;;;;;;96.20;31.25;;;;;;;-5.01;100.00;99630.30;1768386;81;21007;-80
2022/12/18 03:09:08;;;;;;;83.90;24.60;;;;;;;-5.09;100.00;99635.94;1780342;80;21124;-82
2022/12/18 03:14:21;;;;;;;80.65;24.65;;;;;;;-5.11;100.00;99642.70;1761207;81;21007;-78
2022/12/18 03:16:49;;;;;;;90.70;28.17;;;;;;;-5.21;100.00;99651.95;1731436;82;20872;-77
2022/12/18 03:19:17;;;;;;;93.20;31.02;;;;;;;-5.24;100.00;99650.89;1731157;82;21067;-81
2022/12/18 03:21:47;;;;;;;80.25;30.82;;;;;;;-5.26;100.00;99646.73;1731361;82;21137;-80
2022/12/18 03:24:13;;;;;;;98.67;32.33;;;;;;;-5.31;100.00;99652.42;1730265;82;21404;-80
2022/12/18 03:26:41;;;;;;;98.47;33.00;;;;;;;-5.31;100.00;99644.98;1701803;82;20864;-81
2022/12/18 03:29:17;;;;;;;89.55;30.57;;;;;;;-5.31;100.00;99650.27;1731238;82;21035;-78
2022/12/18 03:31:45;;;;;;;72.67;26.05;;;;;;;-5.28;100.00;99652.16;1731607;82;21066;-78
2022/12/18 03:34:18;;;;;;;76.20;24.83;;;;;;;-5.28;100.00;99656.61;1731419;82;21093;-78
2022/12/18 03:36:43;;;;;;;82.80;26.27;;;;;;;-5.25;100.00;99661.12;1730328;82;21063;-78
2022/12/18 03:39:09;;;;;;;89.22;27.15;;;;;;;-5.25;100.00;99661.61;1731248;82;21002;-78
2022/12/18 03:41:46;;;;;;;74.60;25.97;;;;;;;-5.35;100.00;99656.81;1731097;82;20947;-78
2022/12/18 03:44:26;;;;;;;68.17;22.00;;;;;;;-5.38;100.00;99665.86;1731053;82;21047;-78
2022/12/18 03:47:16;;;;;;;88.85;26.90;;;;;;;-5.44;100.00;99657.16;1731193;82;21101;-81
2022/12/18 03:49:55;;;;;;;64.67;21.12;;;;;;;-5.43;100.00;99666.26;1699730;82;21010;-80
2022/12/18 03:52:54;;;;;;;69.10;25.95;;;;;;;-5.45;100.00;99667.38;1699362;82;21044;-78
2022/12/18 03:55:20;;;;;;;72.82;24.52;;;;;;;-5.43;100.00;99672.03;1731160;82;21023;-78
2022/12/18 03:57:48;;;;;;;76.87;25.12;;;;;;;-5.42;100.00;99684.27;1731202;82;20904;-80
2022/12/18 04:00:16;;;;;;;80.55;26.95;;;;;;;-5.38;100.00;99687.00;1731254;82;22042;-78
2022/12/18 04:02:52;;;;;;;77.75;27.73;;;;;;;-5.31;100.00;99696.02;1757982;81;21091;-80
2022/12/18 04:05:19;;;;;;;68.05;24.45;;;;;;;-5.25;100.00;99699.93;1761183;81;22026;-78
2022/12/18 04:07:46;;;;;;;89.30;32.20;;;;;;;-5.23;100.00;99696.66;1761309;81;21027;-78
2022/12/18 04:10:12;;;;;;;62.80;23.22;;;;;;;-5.35;100.00;99698.61;1761395;81;21064;-78
2022/12/18 04:12:38;;;;;;;71.92;24.43;;;;;;;-5.45;100.00;99699.08;1761414;81;21246;-80
2022/12/18 04:15:05;;;;;;;63.73;20.80;;;;;;;-5.53;100.00;99702.89;1752499;81;20872;-78
2022/12/18 04:17:31;;;;;;;75.47;22.07;;;;;;;-5.50;100.00;99712.69;1702265;82;21082;-78
2022/12/18 04:19:57;;;;;;;63.38;20.35;;;;;;;-5.45;100.00;99716.26;1731138;81;20947;-77
2022/12/18 04:22:23;;;;;;;69.42;24.87;;;;;;;-5.44;100.00;99720.56;1731265;82;21050;-78
2022/12/18 04:24:49;;;;;;;65.62;23.10;;;;;;;-5.45;100.00;99721.55;1731159;82;21357;-78
2022/12/18 04:27:15;;;;;;;66.17;21.00;;;;;;;-5.45;100.00;99717.09;1731207;82;20995;-78
2022/12/18 04:29:41;;;;;;;53.98;18.77;;;;;;;-5.45;100.00;99722.38;1730790;82;20955;-78
2022/12/18 04:32:07;;;;;;;59.80;19.48;;;;;;;-5.43;100.00;99725.71;1731207;82;20844;-80
2022/12/18 04:34:33;;;;;;;65.55;20.80;;;;;;;-5.41;100.00;99733.50;1731121;82;21019;-78
2022/12/18 04:36:59;;;;;;;63.50;22.30;;;;;;;-5.36;100.00;99736.58;1730884;82;21311;-78
2022/12/18 04:39:25;;;;;;;71.60;22.98;;;;;;;-5.30;100.00;99733.36;1730907;82;21031;-80
2022/12/18 04:41:51;;;;;;;68.30;22.67;;;;;;;-5.27;100.00;99743.69;1730989;82;21074;-80
2022/12/18 04:44:17;;;;;;;65.32;22.98;;;;;;;-5.21;100.00;99742.31;1730747;82;20935;-78
2022/12/18 04:46:43;;;;;;;70.08;24.65;;;;;;;-5.15;100.00;99739.09;1731045;82;20892;-81
2022/12/18 04:49:10;;;;;;;69.67;21.87;;;;;;;-5.09;100.00;99741.20;1730952;82;21894;-78
2022/12/18 04:51:37;;;;;;;68.67;22.40;;;;;;;-5.03;100.00;99742.47;1730796;82;21090;-81
2022/12/18 04:54:03;;;;;;;78.57;29.55;;;;;;;-5.02;100.00;99741.00;1731115;82;21078;-80
2022/12/18 04:56:30;;;;;;;81.37;26.17;;;;;;;-5.03;100.00;99742.47;1730930;82;20995;-78
2022/12/18 04:58:56;;;;;;;74.65;26.10;;;;;;;-5.06;100.00;99740.91;1730915;82;21086;-78
2022/12/18 05:01:22;;;;;;;71.00;22.98;;;;;;;-5.03;100.00;99744.63;1740866;81;22094;-78
2022/12/18 05:03:48;;;;;;;69.85;25.97;;;;;;;-5.02;100.00;99746.78;1761135;81;20959;-78
2022/12/18 05:06:14;;;;;;;71.97;23.30;;;;;;;-5.02;100.00;99754.22;1761266;81;20915;-78
2022/12/18 05:08:40;;;;;;;77.47;26.42;;;;;;;-4.99;100.00;99749.13;1761273;81;21502;-78
2022/12/18 05:11:08;;;;;;;66.37;24.32;;;;;;;-4.96;100.00;99751.00;1761388;81;20951;-78
2022/12/18 05:13:35;;;;;;;77.32;23.25;;;;;;;-5.01;100.00;99753.73;1761405;81;21135;-80
2022/12/18 05:16:01;;;;;;;61.08;20.43;;;;;;;-5.05;100.00;99760.25;1710742;82;21026;-80
2022/12/18 05:18:27;;;;;;;72.82;22.87;;;;;;;-5.02;100.00;99760.00;1730989;81;21118;-80
2022/12/18 05:20:53;;;;;;;74.00;26.10;;;;;;;-4.99;100.00;99761.86;1731129;82;20900;-78
2022/12/18 05:23:20;;;;;;;71.40;23.70;;;;;;;-4.98;100.00;99762.70;1730876;82;21440;-78
2022/12/18 05:25:55;;;;;;;82.27;28.23;;;;;;;-4.95;100.00;99773.85;1731111;82;21345;-78
2022/12/18 05:28:21;;;;;;;69.05;22.98;;;;;;;-4.99;100.00;99775.08;1730890;82;21015;-80
2022/12/18 05:30:51;;;;;;;81.35;28.50;;;;;;;-4.95;100.00;99784.92;1731081;81;21011;-80
2022/12/18 05:33:18;;;;;;;75.62;26.27;;;;;;;-5.00;100.00;99778.70;1729901;82;22075;-78
2022/12/18 05:35:44;;;;;;;65.28;23.60;;;;;;;-5.00;100.00;99783.99;1730949;82;21090;-81
2022/12/18 05:38:10;;;;;;;74.82;24.32;;;;;;;-4.97;100.00;99782.88;1731104;82;21606;-78
2022/12/18 05:40:36;;;;;;;80.12;26.27;;;;;;;-5.03;100.00;99782.13;1730997;81;21035;-78
2022/12/18 05:43:02;;;;;;;73.12;26.82;;;;;;;-5.06;100.00;99781.89;1730977;82;21365;-78
2022/12/18 05:45:28;;;;;;;84.28;27.40;;;;;;;-5.03;100.00;99783.45;1731214;82;21035;-80
2022/12/18 05:47:54;;;;;;;80.97;27.73;;;;;;;-5.07;100.00;99782.87;1731102;82;20884;-78
2022/12/18 05:50:20;;;;;;;75.17;26.40;;;;;;;-5.11;100.00;99787.61;1731009;82;21171;-79
2022/12/18 05:52:46;;;;;;;96.17;33.50;;;;;;;-5.08;100.00;99790.45;1731135;82;20888;-78
2022/12/18 05:55:12;;;;;;;91.67;30.23;;;;;;;-5.09;100.00;99790.59;1730966;82;20912;-80
2022/12/18 05:57:37;;;;;;;86.00;28.83;;;;;;;-5.11;100.00;99794.21;1731136;82;21565;-81
2022/12/18 06:00:04;;;;;;;84.70;29.07;;;;;;;-5.14;100.00;99795.79;1731404;82;20949;-77
2022/12/18 06:02:30;;;;;;;72.62;26.05;;;;;;;-5.15;100.00;99796.77;1754910;81;21050;-80
2022/12/18 06:04:56;;;;;;;85.57;28.62;;;;;;;-5.15;100.00;99795.44;1761415;81;20912;-77
2022/12/18 06:07:22;;;;;;;79.65;27.77;;;;;;;-5.16;100.00;99799.06;1761219;81;20896;-78
2022/12/18 06:09:48;;;;;;;105.50;38.70;;;;;;;-5.15;100.00;99803.86;1761564;81;21111;-80
2022/12/18 06:12:14;;;;;;;120.37;37.45;;;;;;;-5.15;100.00;99806.50;1761021;81;21093;-81
2022/12/18 06:17:21;;;;;;;75.57;26.20;;;;;;;-5.12;100.00;99820.80;1869316;76;22186;-80
2022/12/18 06:19:47;;;;;;;85.97;26.97;;;;;;;-5.18;100.00;99819.52;1816582;79;20839;-78
2022/12/18 06:22:13;;;;;;;80.07;28.25;;;;;;;-5.24;100.00;99830.63;1816588;79;21970;-78
2022/12/18 06:24:39;;;;;;;91.55;34.65;;;;;;;-5.24;100.00;99834.59;1816534;79;20909;-80
2022/12/18 06:27:04;;;;;;;93.82;37.98;;;;;;;-5.25;100.00;99834.23;1816581;78;20858;-77
2022/12/18 06:29:30;;;;;;;97.10;40.43;;;;;;;-5.23;100.00;99836.25;1816668;79;20916;-80
2022/12/18 06:31:56;;;;;;;112.55;42.62;;;;;;;-5.22;100.00;99832.64;1816733;79;20887;-77
2022/12/18 06:34:22;;;;;;;104.50;35.35;;;;;;;-5.25;100.00;99835.56;1816740;79;21068;-80
2022/12/18 06:36:48;;;;;;;84.67;34.33;;;;;;;-5.24;100.00;99838.55;1816491;79;20957;-77
2022/12/18 06:39:14;;;;;;;93.35;34.03;;;;;;;-5.22;100.00;99843.20;1816566;78;20929;-82
2022/12/18 06:41:40;;;;;;;95.25;36.45;;;;;;;-5.23;100.00;99840.22;1816550;79;21460;-80
2022/12/18 06:44:06;;;;;;;88.47;31.90;;;;;;;-5.26;100.00;99836.53;1816672;79;20928;-82
2022/12/18 06:46:32;;;;;;;73.10;27.27;;;;;;;-5.21;100.00;99836.98;1816550;79;21140;-79
2022/12/18 06:48:58;;;;;;;78.35;28.77;;;;;;;-5.20;100.00;99843.94;1816562;79;20968;-80
2022/12/18 06:51:24;;;;;;;73.22;26.02;;;;;;;-5.15;100.00;99851.45;1816674;79;21028;-80
2022/12/18 06:53:50;;;;;;;94.67;38.28;;;;;;;-5.13;100.00;99854.78;1816452;79;20941;-79
2022/12/18 06:56:16;;;;;;;98.05;35.30;;;;;;;-5.10;100.00;99850.56;1816587;78;20823;-82
2022/12/18 06:58:42;;;;;;;70.15;27.95;;;;;;;-5.13;100.00;99849.04;1816611;78;21150;-80
2022/12/18 07:01:10;;;;;;;67.55;25.00;;;;;;;-5.15;100.00;99869.46;1816572;79;20858;-80
2022/12/18 07:03:37;;;;;;;74.62;33.02;;;;;;;-5.13;100.00;99869.32;1816641;78;21265;-80
2022/12/18 07:06:03;;;;;;;81.12;32.42;;;;;;;-5.15;100.00;99865.50;1816816;79;20981;-80
2022/12/18 07:08:30;;;;;;;69.10;25.43;;;;;;;-5.12;100.00;99867.89;1816726;78;21690;-80
2022/12/18 07:10:56;;;;;;;75.28;24.45;;;;;;;-5.11;100.00;99876.66;1816580;78;20965;-80
2022/12/18 07:13:22;;;;;;;65.05;22.32;;;;;;;-5.08;100.00;99880.83;1816675;78;20988;-79
2022/12/18 07:15:48;;;;;;;73.33;26.12;;;;;;;-5.05;100.00;99883.19;1797147;78;20969;-82
2022/12/18 07:18:14;;;;;;;83.27;28.77;;;;;;;-5.02;100.00;99882.94;1784494;80;21467;-80
2022/12/18 07:20:40;;;;;;;109.42;43.87;;;;;;;-4.98;100.00;99884.33;1784502;80;20858;-79
2022/12/18 07:23:06;;;;;;;112.72;48.35;;;;;;;-5.03;100.00;99892.69;1784465;80;21738;-80
2022/12/18 07:25:35;;;;;;;117.65;45.40;;;;;;;-5.05;100.00;99901.21;1784047;80;20925;-81
2022/12/18 07:28:02;;;;;;;101.75;38.85;;;;;;;-5.03;100.00;99906.39;1784149;80;20993;-82
2022/12/18 07:30:28;;;;;;;106.12;36.63;;;;;;;-5.02;100.00;99899.64;1783888;79;20974;-80
2022/12/18 07:32:54;;;;;;;94.40;35.57;;;;;;;-5.01;100.00;99909.24;1783955;80;21016;-80
2022/12/18 07:35:20;;;;;;;93.60;37.10;;;;;;;-4.98;100.00;99914.25;1783900;80;21119;-79
2022/12/18 07:37:46;;;;;;;133.60;51.85;;;;;;;-4.94;100.00;99908.23;1784095;80;22700;-80
2022/12/18 07:40:12;;;;;;;108.83;46.45;;;;;;;-4.87;100.00;99908.02;1783902;80;20946;-82
2022/12/18 07:42:38;;;;;;;87.53;37.10;;;;;;;-4.80;100.00;99910.47;1783702;80;20924;-80
2022/12/18 07:45:05;;;;;;;90.22;35.52;;;;;;;-4.79;100.00;99913.46;1784211;80;20897;-80
2022/12/18 07:47:31;;;;;;;80.15;31.45;;;;;;;-4.76;100.00;99913.21;1753348;80;22019;-79
2022/12/18 07:49:57;;;;;;;83.78;32.00;;;;;;;-4.73;100.00;99910.28;1753481;80;20850;-79
2022/12/18 07:52:22;;;;;;;98.95;35.28;;;;;;;-4.73;100.00;99918.22;1783687;79;21007;-79
2022/12/18 07:54:51;;;;;;;76.35;31.20;;;;;;;-4.69;100.00;99914.83;1783889;80;20862;-82
2022/12/18 07:57:17;;;;;;;91.15;29.42;;;;;;;-4.63;100.00;99914.27;1783916;79;21005;-79
2022/12/18 07:59:43;;;;;;;106.12;42.53;;;;;;;-4.58;100.00;99920.00;1749229;82;22036;-82
2022/12/18 08:02:09;;;;;;;117.28;50.17;;;;;;;-4.62;100.00;99926.03;1719971;82;20951;-80
2022/12/18 08:04:35;;;;;;;106.83;38.58;;;;;;;-4.64;100.00;99921.86;1733499;82;20998;-82
2022/12/18 08:07:01;;;;;;;84.80;32.65;;;;;;;-4.66;100.00;99929.94;1749214;81;21440;-79
2022/12/18 08:09:27;;;;;;;78.87;30.20;;;;;;;-4.67;100.00;99926.11;1730931;82;20872;-80
2022/12/18 08:11:53;;;;;;;83.70;30.68;;;;;;;-4.61;100.00;99929.55;1731166;82;21067;-79
2022/12/18 08:14:19;;;;;;;112.35;44.60;;;;;;;-4.69;100.00;99930.70;1731005;82;20888;-82
2022/12/18 08:16:45;;;;;;;108.37;37.98;;;;;;;-4.68;100.00;99931.89;1760970;81;20932;-80
2022/12/18 08:19:10;;;;;;;57.33;21.25;;;;;;;-4.62;100.00;99927.35;1761261;81;20873;-79
2022/12/18 08:21:36;;;;;;;84.28;33.33;;;;;;;-4.61;100.00;99929.05;1761506;81;20932;-79
2022/12/18 08:24:03;;;;;;;86.50;32.83;;;;;;;-4.66;100.00;99929.94;1761353;81;21053;-80
2022/12/18 08:26:30;;;;;;;82.17;34.35;;;;;;;-4.58;100.00;99926.61;1761304;81;20960;-80
2022/12/18 08:28:57;;;;;;;85.03;33.08;;;;;;;-4.50;100.00;99932.55;1761341;81;21000;-80
2022/12/18 08:31:23;;;;;;;78.78;33.05;;;;;;;-4.50;100.00;99930.73;1761390;81;21460;-78
2022/12/18 08:33:50;;;;;;;79.70;28.30;;;;;;;-4.44;100.00;99938.59;1761213;81;21059;-78
2022/12/18 08:36:16;;;;;;;80.35;34.10;;;;;;;-4.42;99.90;99934.02;1761320;81;21175;-80
2022/12/18 08:38:42;;;;;;;78.42;29.92;;;;;;;-4.37;100.00;99933.11;1761190;81;21455;-78
2022/12/18 08:41:13;;;;;;;67.82;26.77;;;;;;;-4.31;99.78;99939.18;1761215;81;20888;-80
2022/12/18 08:46:26;;;;;;;82.20;31.25;;;;;;;-4.24;99.24;99948.25;1761314;81;21019;-79
2022/12/18 08:48:52;;;;;;;66.10;26.02;;;;;;;-4.25;98.62;99947.91;1761551;81;21564;-81
2022/12/18 08:51:18;;;;;;;83.27;36.20;;;;;;;-4.21;99.16;99952.42;1756169;81;21015;-77
2022/12/18 08:53:44;;;;;;;86.60;35.95;;;;;;;-4.18;99.17;99952.16;1761182;81;20904;-80
2022/12/18 08:56:10;;;;;;;83.03;34.40;;;;;;;-4.12;99.47;99951.09;1761183;81;21034;-78
2022/12/18 08:58:36;;;;;;;68.50;30.77;;;;;;;-4.13;99.06;99957.38;1761245;81;21058;-78
2022/12/18 09:01:12;;;;;;;73.65;29.95;;;;;;;-4.03;98.84;99954.23;1755852;81;21185;-78
2022/12/18 09:03:36;;;;;;;73.57;30.15;;;;;;;-3.97;98.78;99960.80;1701421;82;20999;-77
2022/12/18 09:06:02;;;;;;;65.37;29.50;;;;;;;-4.01;97.56;99964.22;1731427;82;21440;-78
2022/12/18 09:08:27;;;;;;;60.98;29.25;;;;;;;-4.03;97.22;99966.15;1731056;82;21491;-81
2022/12/18 09:10:54;;;;;;;88.22;36.03;;;;;;;-4.03;97.74;99964.83;1731096;82;20876;-80
2022/12/18 09:13:20;;;;;;;83.30;31.68;;;;;;;-3.99;97.72;99964.91;1701815;82;21083;-78
2022/12/18 09:15:50;;;;;;;73.57;28.52;;;;;;;-4.07;97.10;99967.91;1748810;81;21075;-80
2022/12/18 09:18:18;;;;;;;88.12;34.88;;;;;;;-4.09;96.66;99965.41;1760495;81;21039;-78
2022/12/18 09:20:44;;;;;;;75.60;33.08;;;;;;;-4.03;97.44;99966.64;1731486;81;21484;-81
2022/12/18 09:23:10;;;;;;;74.70;29.25;;;;;;;-4.01;97.48;99973.50;1761096;81;20864;-80
2022/12/18 09:25:36;;;;;;;109.55;43.33;;;;;;;-3.95;97.27;99973.89;1761419;81;21054;-78
2022/12/18 09:28:14;;;;;;;148.07;50.67;;;;;;;-3.89;97.46;99977.31;1761169;81;21007;-78
2022/12/18 09:30:46;;;;;;;93.87;33.40;;;;;;;-3.85;97.37;99982.67;1761630;81;21032;-78
2022/12/18 09:33:13;;;;;;;122.17;53.63;;;;;;;-3.79;97.13;99982.12;1761194;81;21019;-80
2022/12/18 09:35:40;;;;;;;87.85;41.73;;;;;;;-3.75;96.84;99984.36;1761442;81;21055;-81
2022/12/18 09:38:06;;;;;;;203.22;74.85;;;;;;;-3.68;96.87;99984.61;1761078;81;21108;-78
2022/12/18 09:40:38;;;;;;;203.95;75.62;;;;;;;-3.62;97.14;99986.70;1761441;81;21544;-80
2022/12/18 09:43:04;;;;;;;130.57;50.60;;;;;;;-3.58;97.06;99985.47;1760978;81;20988;-78
2022/12/18 09:45:35;;;;;;;156.75;58.40;;;;;;;-3.64;96.30;99988.67;1761450;81;21074;-78
2022/12/18 09:48:01;;;;;;;171.10;71.67;;;;;;;-3.60;96.14;99982.59;1760328;81;21067;-78
2022/12/18 09:50:34;;;;;;;126.38;61.25;;;;;;;-3.58;96.12;99984.63;1761409;81;21159;-80
2022/12/18 09:53:09;;;;;;;106.72;50.03;;;;;;;-3.57;95.79;99991.11;1761013;81;21063;-78
2022/12/18 09:55:38;;;;;;;79.10;33.20;;;;;;;-3.67;95.49;99983.66;1731335;81;21011;-79
2022/12/18 09:58:21;;;;;;;68.10;25.82;;;;;;;-3.63;96.19;99994.80;1761218;81;21444;-78
2022/12/18 10:00:47;;;;;;;67.42;28.92;;;;;;;-3.49;96.14;100001.84;1758187;81;20991;-78
2022/12/18 10:03:14;;;;;;;73.33;28.83;;;;;;;-3.55;95.21;99999.75;1730975;82;21866;-81
2022/12/18 10:06:08;;;;;;;74.60;28.52;;;;;;;-3.49;95.82;99999.69;1731149;82;21043;-81
2022/12/18 10:09:04;;;;;;;73.85;32.45;;;;;;;-3.51;95.45;100003.77;1731028;82;21044;-78
2022/12/18 10:11:38;;;;;;;70.75;29.52;;;;;;;-3.49;94.71;99997.87;1731167;82;21091;-80
2022/12/18 10:14:15;;;;;;;68.05;28.73;;;;;;;-3.49;95.11;99997.87;1731250;82;21011;-80
2022/12/18 10:17:04;;;;;;;61.85;24.45;;;;;;;-3.44;94.95;99995.61;1756713;81;22081;-80
2022/12/18 10:19:39;;;;;;;;;;;;;;;-3.47;94.23;99998.55;1760117;81;22016;-78
2022/12/18 10:22:26;;;;;;;122.17;47.38;;;;;;;-3.40;95.25;99989.55;1758073;81;20191;-78
2022/12/18 10:25:15;;;;;;;81.30;34.55;;;;;;;-3.42;94.86;99984.40;1755448;81;21410;-80
2022/12/18 10:27:41;;;;;;;83.70;29.10;;;;;;;-3.35;94.75;99980.66;1751720;81;21600;-78
2022/12/18 10:30:17;;;;;;;93.35;43.00;;;;;;;-3.44;94.02;99975.73;1751843;81;21729;-78
2022/12/18 10:32:43;;;;;;;106.17;53.15;;;;;;;-3.47;94.60;99971.22;1751516;81;21098;-78
2022/12/18 10:35:20;;;;;;;229.95;78.57;;;;;;;-3.29;94.76;99978.77;1751857;81;20870;-80
2022/12/18 10:38:06;;;;;;;108.50;48.20;;;;;;;-3.25;94.45;99977.49;1751341;81;21005;-80
2022/12/18 10:40:32;;;;;;;79.97;30.35;;;;;;;-3.27;94.37;99976.80;1751851;81;20991;-80
2022/12/18 10:43:12;;;;;;;80.12;34.80;;;;;;;-3.17;94.32;99974.95;1723662;81;21857;-81
2022/12/18 10:45:39;;;;;;;61.98;27.77;;;;;;;-3.18;93.99;99975.11;1751717;81;21091;-78
2022/12/18 10:48:05;;;;;;;89.13;34.03;;;;;;;-3.06;93.73;99974.46;1751534;81;21070;-78
2022/12/18 10:50:34;;;;;;;76.40;31.77;;;;;;;-3.08;93.93;99967.11;1751464;81;21002;-80
2022/12/18 10:53:02;;;;;;;89.07;44.55;;;;;;;-3.07;93.43;99966.16;1750838;81;21010;-80
2022/12/18 10:55:39;;;;;;;111.55;45.70;;;;;;;-3.28;93.31;99949.95;1751839;81;21847;-78
2022/12/18 10:58:33;;;;;;;200.18;65.25;;;;;;;-3.37;93.73;99948.66;1755499;81;21508;-80
2022/12/18 11:01:15;;;;;;;156.07;57.43;;;;;;;-3.43;93.74;99951.38;1746096;81;21016;-78
2022/12/18 11:03:51;;;;;;;108.65;41.70;;;;;;;-3.51;93.96;99946.78;1752005;81;21048;-80
2022/12/18 11:06:24;;;;;;;82.67;34.75;;;;;;;-3.64;92.75;99933.52;1750759;81;21262;-78
2022/12/18 11:09:05;;;;;;;77.97;34.20;;;;;;;-3.75;92.94;99943.79;1752061;81;21142;-80
2022/12/18 11:11:32;;;;;;;56.70;23.55;;;;;;;-3.85;93.61;99942.94;1752393;81;21973;-80
2022/12/18 11:14:24;;;;;;;59.48;22.00;;;;;;;-3.90;93.54;99943.38;1752171;81;21061;-78
2022/12/18 11:16:50;;;;;;;59.03;20.65;;;;;;;-3.88;93.94;99945.88;1719479;83;21019;-80
2022/12/18 11:19:33;;;;;;;128.20;44.90;;;;;;;-3.87;94.42;99938.27;1749303;81;21027;-78
2022/12/18 11:22:01;;;;;;;100.40;40.50;;;;;;;-3.83;93.84;99937.03;1730769;82;21131;-78
2022/12/18 11:24:35;;;;;;;127.02;54.53;;;;;;;-3.87;93.28;99930.33;1731110;82;21063;-79
2022/12/18 11:27:05;;;;;;;178.85;77.90;;;;;;;-3.93;93.58;99934.39;1730986;81;21043;-80
2022/12/18 11:29:36;;;;;;;160.32;77.47;;;;;;;-3.92;93.58;99932.58;1730806;82;21083;-80
2022/12/18 11:32:23;;;;;;;151.68;69.58;;;;;;;-3.93;93.91;99930.88;1731173;82;21058;-78